createdAt,value
2023-05-19T00:01:33.263Z,100.00
2023-05-19T00:04:05.242Z,100.00
2023-05-19T00:06:33.214Z,100.00
2023-05-19T00:09:05.908Z,100.00
2023-05-19T00:11:38.058Z,100.00
2023-05-19T00:14:07.953Z,100.00
2023-05-19T00:16:36.253Z,100.00
2023-05-19T00:19:05.394Z,100.00
2023-05-19T00:21:32.979Z,100.00
2023-05-19T00:23:59.992Z,100.00
2023-05-19T00:26:28.182Z,100.00
2023-05-19T00:28:55.621Z,100.00
2023-05-19T00:31:22.655Z,100.00
2023-05-19T00:33:49.849Z,100.00
2023-05-19T00:36:16.828Z,100.00
2023-05-19T00:38:43.972Z,100.00
2023-05-19T00:41:11.920Z,100.00
2023-05-19T00:43:38.836Z,100.00
2023-05-19T00:46:07.412Z,100.00
2023-05-19T00:48:34.765Z,100.00
2023-05-19T00:51:04.939Z,100.00
2023-05-19T00:53:33.575Z,100.00
2023-05-19T00:56:01.347Z,100.00
2023-05-19T00:58:30.471Z,100.00
2023-05-19T01:01:07.005Z,100.00
2023-05-19T01:03:36.190Z,100.00
2023-05-19T01:06:07.463Z,100.00
2023-05-19T01:08:37.269Z,100.00
2023-05-19T01:11:05.565Z,100.00
2023-05-19T01:13:33.437Z,100.00
2023-05-19T01:16:24.663Z,100.00
2023-05-19T01:19:36.992Z,100.00
2023-05-19T01:22:26.973Z,100.00
2023-05-19T01:25:23.904Z,100.00
2023-05-19T01:28:05.656Z,100.00
2023-05-19T01:30:40.018Z,100.00
2023-05-19T01:33:09.620Z,100.00
2023-05-19T01:35:39.119Z,100.00
2023-05-19T01:38:09.999Z,100.00
2023-05-19T01:40:39.788Z,100.00
2023-05-19T01:43:09.151Z,100.00
2023-05-19T01:45:37.014Z,100.00
2023-05-19T01:48:05.055Z,100.00
2023-05-19T01:50:33.239Z,100.00
2023-05-19T01:53:01.403Z,100.00
2023-05-19T01:55:28.618Z,100.00
2023-05-19T01:58:11.560Z,100.00
2023-05-19T02:00:38.527Z,100.00
2023-05-19T02:03:08.563Z,100.00
2023-05-19T02:05:46.001Z,100.00
2023-05-19T02:08:40.138Z,100.00
2023-05-19T02:11:54.644Z,100.00
2023-05-19T02:14:29.828Z,100.00
2023-05-19T02:16:59.223Z,100.00
2023-05-19T02:19:32.208Z,100.00
2023-05-19T02:21:59.308Z,100.00
2023-05-19T02:24:26.700Z,100.00
2023-05-19T02:26:54.774Z,100.00
2023-05-19T02:29:22.058Z,100.00
2023-05-19T02:31:49.241Z,100.00
2023-05-19T02:34:16.540Z,100.00
2023-05-19T02:36:43.534Z,100.00
2023-05-19T02:39:11.242Z,100.00
2023-05-19T02:41:39.230Z,100.00
2023-05-19T02:44:06.295Z,100.00
2023-05-19T02:46:33.747Z,100.00
2023-05-19T02:49:00.859Z,100.00
2023-05-19T02:51:27.828Z,100.00
2023-05-19T02:53:54.782Z,100.00
2023-05-19T02:56:21.996Z,100.00
2023-05-19T02:58:48.976Z,100.00
2023-05-19T03:01:16.676Z,100.00
2023-05-19T03:03:43.975Z,100.00
2023-05-19T03:06:11.352Z,100.00
2023-05-19T03:08:40.753Z,100.00
2023-05-19T03:11:09.289Z,100.00
2023-05-19T03:13:36.729Z,100.00
2023-05-19T03:16:03.780Z,100.00
2023-05-19T03:18:31.086Z,100.00
2023-05-19T03:20:57.947Z,100.00
2023-05-19T03:23:25.288Z,100.00
2023-05-19T03:25:54.270Z,100.00
2023-05-19T03:28:21.372Z,100.00
2023-05-19T03:30:50.168Z,100.00
2023-05-19T03:33:17.116Z,100.00
2023-05-19T03:35:47.345Z,100.00
2023-05-19T03:38:14.324Z,100.00
2023-05-19T03:40:41.887Z,100.00
2023-05-19T03:43:08.810Z,100.00
2023-05-19T03:45:35.701Z,100.00
2023-05-19T03:48:02.558Z,100.00
2023-05-19T03:50:31.718Z,100.00
2023-05-19T03:52:58.870Z,100.00
2023-05-19T03:55:26.126Z,100.00
2023-05-19T03:57:53.175Z,100.00
2023-05-19T04:00:20.633Z,100.00
2023-05-19T04:02:47.876Z,100.00
2023-05-19T04:05:14.972Z,100.00
2023-05-19T04:07:43.047Z,100.00
2023-05-19T04:10:10.447Z,100.00
2023-05-19T04:12:37.429Z,100.00
2023-05-19T04:15:06.248Z,100.00
2023-05-19T04:17:33.187Z,100.00
2023-05-19T04:20:00.173Z,100.00
2023-05-19T04:22:27.248Z,100.00
2023-05-19T04:24:55.104Z,100.00
2023-05-19T04:27:22.314Z,100.00
2023-05-19T04:29:50.069Z,100.00
2023-05-19T04:32:19.860Z,100.00
2023-05-19T04:34:46.749Z,100.00
2023-05-19T04:37:16.480Z,100.00
2023-05-19T04:39:45.305Z,100.00
2023-05-19T04:42:13.369Z,100.00
2023-05-19T04:44:40.345Z,100.00
2023-05-19T04:47:08.928Z,100.00
2023-05-19T04:49:38.985Z,100.00
2023-05-19T04:52:11.062Z,100.00
2023-05-19T04:54:39.681Z,100.00
2023-05-19T04:57:06.715Z,100.00
2023-05-19T04:59:33.916Z,100.00
2023-05-19T05:02:00.914Z,100.00
2023-05-19T05:04:28.471Z,100.00
2023-05-19T05:06:55.625Z,100.00
2023-05-19T05:09:22.659Z,100.00
2023-05-19T05:11:50.210Z,100.00
2023-05-19T05:14:17.602Z,100.00
2023-05-19T05:16:45.014Z,100.00
2023-05-19T05:19:12.443Z,100.00
2023-05-19T05:21:39.754Z,100.00
2023-05-19T05:24:07.298Z,100.00
2023-05-19T05:26:35.722Z,100.00
2023-05-19T05:29:03.893Z,100.00
2023-05-19T05:31:31.562Z,100.00
2023-05-19T05:33:58.925Z,100.00
2023-05-19T05:36:25.992Z,100.00
2023-05-19T05:38:52.926Z,100.00
2023-05-19T05:41:20.088Z,100.00
2023-05-19T05:43:47.128Z,100.00
2023-05-19T05:46:14.192Z,100.00
2023-05-19T05:48:42.807Z,100.00
2023-05-19T05:51:10.066Z,100.00
2023-05-19T05:53:44.610Z,100.00
2023-05-19T05:56:12.484Z,100.00
2023-05-19T05:58:40.855Z,100.00
2023-05-19T06:01:11.505Z,100.00
2023-05-19T06:03:44.511Z,100.00
2023-05-19T06:06:12.000Z,100.00
2023-05-19T06:08:38.992Z,100.00
2023-05-19T06:11:09.393Z,100.00
2023-05-19T06:13:36.979Z,100.00
2023-05-19T06:16:04.762Z,100.00
2023-05-19T06:18:33.060Z,100.00
2023-05-19T06:20:59.935Z,100.00
2023-05-19T06:23:29.210Z,100.00
2023-05-19T06:25:56.768Z,100.00
2023-05-19T06:28:23.735Z,100.00
2023-05-19T06:30:50.795Z,100.00
2023-05-19T06:33:17.660Z,99.76
2023-05-19T06:35:44.591Z,99.31
2023-05-19T06:38:11.627Z,97.94
2023-05-19T06:40:38.664Z,96.12
2023-05-19T06:43:05.711Z,98.37
2023-05-19T06:45:33.319Z,98.53
2023-05-19T06:48:00.785Z,97.42
2023-05-19T06:50:30.433Z,97.26
2023-05-19T06:52:58.525Z,98.48
2023-05-19T06:55:25.699Z,96.57
2023-05-19T06:57:52.664Z,95.62
2023-05-19T07:00:22.132Z,95.06
2023-05-19T07:02:50.935Z,95.15
2023-05-19T07:05:18.401Z,95.58
2023-05-19T07:07:45.348Z,93.72
2023-05-19T07:10:12.225Z,94.16
2023-05-19T07:12:39.120Z,92.76
2023-05-19T07:15:06.782Z,91.56
2023-05-19T07:17:33.656Z,91.66
2023-05-19T07:20:01.701Z,91.81
2023-05-19T07:22:28.864Z,90.79
2023-05-19T07:24:57.193Z,90.41
2023-05-19T07:27:24.065Z,87.87
2023-05-19T07:29:51.171Z,88.77
2023-05-19T07:32:18.689Z,87.60
2023-05-19T07:34:46.049Z,86.38
2023-05-19T07:37:13.014Z,86.33
2023-05-19T07:39:39.920Z,85.41
2023-05-19T07:42:06.811Z,86.07
2023-05-19T07:44:34.768Z,83.50
2023-05-19T07:47:01.777Z,85.47
2023-05-19T07:49:28.616Z,84.49
2023-05-19T07:51:55.640Z,83.40
2023-05-19T07:54:27.589Z,85.21
2023-05-19T07:56:54.498Z,83.92
2023-05-19T07:59:21.484Z,84.63
2023-05-19T08:01:48.372Z,85.33
2023-05-19T08:04:15.564Z,82.28
2023-05-19T08:06:44.473Z,80.04
2023-05-19T08:09:12.077Z,83.32
2023-05-19T08:11:39.225Z,82.05
2023-05-19T08:14:06.333Z,82.65
2023-05-19T08:16:33.256Z,79.77
2023-05-19T08:19:02.749Z,80.32
2023-05-19T08:21:29.818Z,81.33
2023-05-19T08:23:57.258Z,78.72
2023-05-19T08:26:24.134Z,79.49
2023-05-19T08:28:51.124Z,77.16
2023-05-19T08:31:18.551Z,75.47
2023-05-19T08:33:45.931Z,75.54
2023-05-19T08:36:12.937Z,77.44
2023-05-19T08:38:39.954Z,75.36
2023-05-19T08:41:07.136Z,72.71
2023-05-19T08:43:34.330Z,75.38
2023-05-19T08:46:01.254Z,74.27
2023-05-19T08:48:31.387Z,71.32
2023-05-19T08:51:11.918Z,71.22
2023-05-19T08:53:44.101Z,71.62
2023-05-19T08:56:23.106Z,71.93
2023-05-19T08:58:51.187Z,68.22
2023-05-19T09:01:19.995Z,67.04
2023-05-19T09:03:50.025Z,66.06
2023-05-19T09:06:17.513Z,63.76
2023-05-19T09:08:44.833Z,64.53
2023-05-19T09:11:12.270Z,63.90
2023-05-19T09:13:39.600Z,62.10
2023-05-19T09:16:08.324Z,60.86
2023-05-19T09:18:39.080Z,58.32
2023-05-19T09:21:07.313Z,57.93
2023-05-19T09:23:34.522Z,58.17
2023-05-19T09:26:04.511Z,58.46
2023-05-19T09:28:35.830Z,57.05
2023-05-19T09:31:07.854Z,54.53
2023-05-19T09:33:37.105Z,54.59
2023-05-19T09:36:08.657Z,55.04
2023-05-19T09:38:36.309Z,57.43
2023-05-19T09:41:05.870Z,55.83
2023-05-19T09:43:34.029Z,56.24
2023-05-19T09:46:11.838Z,63.31
2023-05-19T09:48:39.961Z,58.95
2023-05-19T09:51:10.435Z,57.56
2023-05-19T09:53:39.167Z,54.89
2023-05-19T09:56:08.837Z,54.84
2023-05-19T09:58:36.805Z,57.87
2023-05-19T10:01:05.473Z,57.19
2023-05-19T10:03:33.926Z,60.25
2023-05-19T10:06:09.304Z,58.78
2023-05-19T10:08:37.785Z,54.92
2023-05-19T10:11:06.644Z,51.93
2023-05-19T10:13:38.680Z,51.90
2023-05-19T10:16:06.763Z,48.51
2023-05-19T10:18:33.981Z,52.73
2023-05-19T10:21:02.502Z,53.96
2023-05-19T10:23:29.483Z,56.74
2023-05-19T10:25:58.539Z,57.96
2023-05-19T10:28:32.001Z,61.40
2023-05-19T10:31:01.828Z,63.61
2023-05-19T10:33:55.906Z,60.40
2023-05-19T10:36:39.903Z,54.91
2023-05-19T10:39:19.408Z,52.10
2023-05-19T10:41:47.492Z,48.83
2023-05-19T10:44:53.511Z,51.93
2023-05-19T10:47:24.995Z,55.27
2023-05-19T10:49:55.795Z,57.88
2023-05-19T10:52:26.838Z,56.49
2023-05-19T10:54:54.913Z,57.60
2023-05-19T10:57:30.682Z,58.69
2023-05-19T10:59:58.104Z,60.05
2023-05-19T11:02:56.278Z,59.52
2023-05-19T11:05:29.641Z,54.87
2023-05-19T11:08:05.821Z,48.49
2023-05-19T11:10:32.745Z,45.37
2023-05-19T11:12:59.999Z,46.48
2023-05-19T11:15:28.127Z,45.06
2023-05-19T11:17:55.388Z,44.98
2023-05-19T11:20:26.906Z,44.42
2023-05-19T11:23:20.348Z,42.74
2023-05-19T11:25:52.256Z,43.88
2023-05-19T11:28:20.870Z,42.15
2023-05-19T11:30:52.281Z,42.11
2023-05-19T11:33:21.627Z,41.32
2023-05-19T11:35:51.189Z,39.47
2023-05-19T11:38:20.722Z,37.45
2023-05-19T11:40:49.933Z,36.59
2023-05-19T11:43:16.929Z,38.77
2023-05-19T11:45:43.996Z,39.98
2023-05-19T11:48:16.107Z,38.78
2023-05-19T11:50:47.047Z,39.57
2023-05-19T11:53:14.941Z,38.15
2023-05-19T11:55:50.778Z,39.74
2023-05-19T11:58:18.225Z,42.13
2023-05-19T12:00:47.932Z,44.18
2023-05-19T12:03:15.278Z,41.97
2023-05-19T12:05:49.526Z,38.20
2023-05-19T12:08:18.762Z,39.93
2023-05-19T12:10:52.073Z,39.70
2023-05-19T12:13:19.622Z,38.41
2023-05-19T12:15:46.560Z,41.91
2023-05-19T12:18:13.587Z,43.05
2023-05-19T12:20:40.795Z,42.04
2023-05-19T12:23:07.897Z,39.79
2023-05-19T12:25:35.323Z,41.33
2023-05-19T12:28:05.497Z,43.10
2023-05-19T12:30:33.574Z,43.26
2023-05-19T12:33:02.391Z,43.24
2023-05-19T12:35:34.298Z,41.32
2023-05-19T12:38:05.071Z,38.99
2023-05-19T12:40:34.142Z,38.13
2023-05-19T12:43:01.858Z,37.88
2023-05-19T12:45:29.219Z,36.86
2023-05-19T12:47:56.910Z,37.10
2023-05-19T12:50:31.164Z,36.20
2023-05-19T12:52:59.968Z,35.83
2023-05-19T12:55:27.219Z,36.24
2023-05-19T12:57:57.309Z,35.65
2023-05-19T13:00:28.411Z,35.75
2023-05-19T13:03:07.433Z,35.50
2023-05-19T13:05:39.923Z,35.81
2023-05-19T13:08:09.332Z,35.46
2023-05-19T13:10:38.167Z,36.15
2023-05-19T13:13:08.063Z,35.31
2023-05-19T13:15:39.459Z,34.05
2023-05-19T13:18:09.139Z,35.49
2023-05-19T13:20:38.538Z,35.70
2023-05-19T13:23:05.969Z,36.99
2023-05-19T13:25:34.528Z,40.57
2023-05-19T13:28:05.814Z,38.05
2023-05-19T13:30:38.645Z,36.80
2023-05-19T13:33:06.411Z,35.05
2023-05-19T13:35:39.453Z,34.13
2023-05-19T13:38:07.992Z,34.03
2023-05-19T13:40:35.311Z,33.30
2023-05-19T13:43:03.666Z,32.55
2023-05-19T13:45:30.873Z,33.18
2023-05-19T13:47:57.972Z,34.14
2023-05-19T13:50:25.102Z,38.20
2023-05-19T13:52:52.323Z,36.10
2023-05-19T13:55:19.547Z,37.35
2023-05-19T13:57:46.570Z,36.71
2023-05-19T14:00:13.972Z,35.86
2023-05-19T14:02:41.125Z,34.41
2023-05-19T14:05:08.779Z,35.58
2023-05-19T14:07:36.019Z,33.43
2023-05-19T14:10:05.736Z,32.46
2023-05-19T14:12:41.375Z,31.62
2023-05-19T14:15:14.649Z,32.30
2023-05-19T14:17:41.908Z,31.55
2023-05-19T14:20:09.781Z,32.23
2023-05-19T14:22:36.790Z,33.17
2023-05-19T14:25:03.821Z,33.14
2023-05-19T14:27:30.900Z,32.82
2023-05-19T14:29:57.997Z,32.02
2023-05-19T14:32:25.905Z,32.01
2023-05-19T14:34:53.782Z,31.55
2023-05-19T14:37:20.612Z,30.95
2023-05-19T14:39:47.549Z,30.26
2023-05-19T14:42:14.485Z,30.04
2023-05-19T14:44:41.396Z,33.69
2023-05-19T14:47:08.572Z,33.82
2023-05-19T14:49:35.536Z,34.75
2023-05-19T14:52:02.533Z,35.17
2023-05-19T14:54:29.396Z,34.81
2023-05-19T14:56:56.347Z,34.82
2023-05-19T14:59:23.277Z,33.28
2023-05-19T15:01:50.200Z,32.54
2023-05-19T15:04:17.235Z,30.33
2023-05-19T15:06:45.177Z,31.78
2023-05-19T15:09:15.016Z,31.21
2023-05-19T15:11:42.047Z,31.03
2023-05-19T15:14:08.902Z,32.17
2023-05-19T15:16:35.956Z,31.76
2023-05-19T15:19:03.029Z,30.97
2023-05-19T15:21:29.925Z,31.81
2023-05-19T15:23:56.845Z,32.15
2023-05-19T15:26:23.755Z,32.74
2023-05-19T15:28:52.663Z,33.59
2023-05-19T15:31:19.612Z,34.23
2023-05-19T15:33:46.612Z,34.84
2023-05-19T15:36:16.665Z,35.99
2023-05-19T15:38:43.681Z,37.36
2023-05-19T15:41:11.172Z,37.68
2023-05-19T15:43:38.768Z,38.84
2023-05-19T15:46:05.815Z,39.03
2023-05-19T15:48:33.247Z,39.12
2023-05-19T15:51:00.334Z,39.08
2023-05-19T15:53:27.333Z,41.34
2023-05-19T15:55:54.378Z,41.30
2023-05-19T15:58:21.324Z,41.14
2023-05-19T16:00:48.398Z,40.98
2023-05-19T16:03:15.506Z,41.78
2023-05-19T16:05:42.559Z,42.58
2023-05-19T16:08:09.514Z,41.83
2023-05-19T16:10:36.460Z,41.63
2023-05-19T16:13:03.459Z,43.46
2023-05-19T16:15:30.562Z,42.96
2023-05-19T16:17:57.573Z,43.24
2023-05-19T16:20:27.926Z,42.94
2023-05-19T16:22:55.561Z,42.94
2023-05-19T16:25:22.878Z,42.99
2023-05-19T16:27:50.571Z,43.51
2023-05-19T16:30:17.625Z,43.95
2023-05-19T16:32:44.643Z,44.20
2023-05-19T16:35:11.793Z,45.73
2023-05-19T16:37:38.712Z,46.38
2023-05-19T16:40:06.298Z,47.04
2023-05-19T16:42:33.251Z,46.91
2023-05-19T16:45:00.148Z,48.17
2023-05-19T16:47:27.287Z,49.31
2023-05-19T16:49:54.262Z,50.51
2023-05-19T16:52:21.182Z,51.00
2023-05-19T16:54:48.109Z,51.80
2023-05-19T16:57:15.010Z,52.83
2023-05-19T16:59:42.245Z,52.56
2023-05-19T17:02:09.222Z,53.95
2023-05-19T17:04:36.249Z,55.12
2023-05-19T17:07:03.188Z,55.26
2023-05-19T17:09:30.096Z,56.00
2023-05-19T17:11:57.028Z,56.22
2023-05-19T17:14:23.941Z,56.77
2023-05-19T17:16:52.555Z,56.74
2023-05-19T17:19:19.632Z,58.84
2023-05-19T17:21:46.617Z,61.13
2023-05-19T17:24:13.548Z,59.80
2023-05-19T17:26:40.460Z,60.42
2023-05-19T17:29:07.406Z,61.46
2023-05-19T17:31:34.465Z,61.57
2023-05-19T17:34:01.338Z,61.97
2023-05-19T17:36:28.345Z,63.31
2023-05-19T17:38:55.332Z,63.34
2023-05-19T17:41:22.840Z,63.23
2023-05-19T17:43:49.876Z,64.52
2023-05-19T17:46:17.059Z,65.56
2023-05-19T17:48:44.035Z,66.91
2023-05-19T17:51:11.509Z,68.63
2023-05-19T17:53:39.025Z,70.44
2023-05-19T17:56:07.420Z,68.40
2023-05-19T17:58:34.671Z,69.75
2023-05-19T18:01:01.757Z,69.99
2023-05-19T18:03:29.073Z,72.62
2023-05-19T18:05:57.018Z,73.59
2023-05-19T18:08:24.236Z,72.31
2023-05-19T18:10:52.667Z,73.57
2023-05-19T18:13:19.677Z,73.85
2023-05-19T18:15:46.789Z,76.10
2023-05-19T18:18:13.846Z,76.59
2023-05-19T18:20:44.237Z,76.73
2023-05-19T18:23:11.423Z,77.11
2023-05-19T18:25:38.624Z,78.85
2023-05-19T18:28:05.662Z,79.68
2023-05-19T18:30:32.722Z,79.10
2023-05-19T18:33:03.594Z,80.35
2023-05-19T18:35:31.082Z,81.51
2023-05-19T18:37:58.096Z,81.86
2023-05-19T18:40:25.261Z,83.44
2023-05-19T18:42:52.366Z,84.22
2023-05-19T18:45:19.473Z,84.06
2023-05-19T18:47:46.812Z,84.09
2023-05-19T18:50:14.570Z,84.78
2023-05-19T18:52:41.625Z,84.58
2023-05-19T18:55:09.094Z,84.87
2023-05-19T18:57:36.091Z,85.06
2023-05-19T19:00:03.235Z,85.37
2023-05-19T19:02:30.202Z,87.84
2023-05-19T19:04:57.394Z,87.88
2023-05-19T19:07:25.665Z,88.03
2023-05-19T19:09:52.810Z,87.64
2023-05-19T19:12:20.362Z,87.97
2023-05-19T19:14:47.554Z,87.98
2023-05-19T19:17:14.734Z,88.69
2023-05-19T19:19:41.837Z,88.87
2023-05-19T19:22:08.880Z,88.88
2023-05-19T19:24:35.936Z,89.96
2023-05-19T19:27:03.080Z,90.77
2023-05-19T19:29:30.111Z,91.21
2023-05-19T19:31:57.212Z,92.26
2023-05-19T19:34:24.099Z,92.36
2023-05-19T19:36:51.189Z,93.04
2023-05-19T19:39:18.230Z,92.88
2023-05-19T19:41:45.348Z,93.37
2023-05-19T19:44:13.658Z,93.44
2023-05-19T19:46:41.453Z,92.92
2023-05-19T19:49:08.758Z,93.15
2023-05-19T19:51:35.743Z,93.50
2023-05-19T19:54:02.762Z,94.94
2023-05-19T19:56:29.741Z,95.20
2023-05-19T19:58:59.120Z,96.08
2023-05-19T20:01:27.874Z,97.07
2023-05-19T20:03:56.128Z,96.37
2023-05-19T20:06:23.538Z,97.03
2023-05-19T20:08:50.558Z,96.29
2023-05-19T20:11:17.547Z,97.30
2023-05-19T20:13:44.490Z,97.73
2023-05-19T20:16:11.520Z,98.14
2023-05-19T20:18:39.640Z,99.14
2023-05-19T20:21:06.615Z,99.45
2023-05-19T20:23:33.986Z,99.77
2023-05-19T20:26:11.999Z,100.00
2023-05-19T20:28:40.531Z,100.00
2023-05-19T20:31:07.586Z,100.00
2023-05-19T20:33:34.925Z,100.00
2023-05-19T20:36:02.192Z,99.71
2023-05-19T20:38:29.082Z,99.87
2023-05-19T20:40:55.951Z,100.00
2023-05-19T20:43:22.875Z,100.00
2023-05-19T20:45:49.941Z,100.00
2023-05-19T20:48:17.065Z,100.00
2023-05-19T20:50:44.235Z,100.00
2023-05-19T20:53:11.212Z,100.00
2023-05-19T20:55:39.141Z,100.00
2023-05-19T20:58:06.243Z,100.00
2023-05-19T21:00:33.487Z,100.00
2023-05-19T21:03:00.894Z,99.75
2023-05-19T21:05:27.986Z,99.42
2023-05-19T21:07:54.959Z,99.60
2023-05-19T21:10:21.961Z,99.53
2023-05-19T21:12:48.910Z,99.66
2023-05-19T21:15:15.913Z,99.67
2023-05-19T21:17:42.942Z,99.93
2023-05-19T21:20:10.459Z,100.00
2023-05-19T21:22:37.408Z,100.00
2023-05-19T21:25:04.852Z,100.00
2023-05-19T21:27:33.002Z,100.00
2023-05-19T21:30:00.218Z,100.00
2023-05-19T21:32:29.696Z,100.00
2023-05-19T21:34:56.819Z,100.00
2023-05-19T21:37:23.741Z,100.00
2023-05-19T21:39:50.820Z,100.00
2023-05-19T21:42:17.802Z,100.00
2023-05-19T21:44:44.678Z,100.00
2023-05-19T21:47:11.561Z,100.00
2023-05-19T21:49:40.148Z,100.00
2023-05-19T21:52:07.988Z,100.00
2023-05-19T21:54:36.163Z,100.00
2023-05-19T21:57:03.228Z,100.00
2023-05-19T21:59:30.712Z,100.00
2023-05-19T22:01:58.456Z,100.00
2023-05-19T22:04:25.672Z,100.00
2023-05-19T22:06:52.585Z,100.00
2023-05-19T22:09:19.622Z,100.00
2023-05-19T22:11:46.539Z,100.00
2023-05-19T22:14:13.904Z,100.00
2023-05-19T22:16:41.201Z,100.00
2023-05-19T22:19:08.303Z,100.00
2023-05-19T22:21:35.330Z,100.00
2023-05-19T22:24:02.546Z,100.00
2023-05-19T22:26:29.424Z,100.00
2023-05-19T22:28:56.672Z,100.00
2023-05-19T22:31:23.650Z,100.00
2023-05-19T22:33:50.718Z,100.00
2023-05-19T22:36:17.664Z,100.00
2023-05-19T22:38:44.688Z,100.00
2023-05-19T22:41:11.649Z,100.00
2023-05-19T22:43:38.714Z,100.00
2023-05-19T22:46:05.578Z,100.00
2023-05-19T22:48:32.500Z,100.00
2023-05-19T22:50:59.496Z,100.00
2023-05-19T22:53:26.362Z,100.00
2023-05-19T22:55:53.273Z,100.00
2023-05-19T22:58:20.171Z,100.00
2023-05-19T23:00:47.053Z,100.00
2023-05-19T23:03:14.023Z,100.00
2023-05-19T23:05:41.472Z,100.00
2023-05-19T23:08:08.333Z,100.00
2023-05-19T23:10:35.156Z,100.00
2023-05-19T23:13:02.241Z,100.00
2023-05-19T23:15:29.211Z,100.00
2023-05-19T23:17:56.114Z,100.00
2023-05-19T23:20:23.101Z,100.00
2023-05-19T23:22:50.014Z,100.00
2023-05-19T23:25:17.018Z,100.00
2023-05-19T23:27:43.984Z,100.00
2023-05-19T23:30:11.275Z,100.00
2023-05-19T23:32:38.551Z,100.00
2023-05-19T23:35:24.340Z,100.00
2023-05-19T23:37:51.325Z,100.00
2023-05-19T23:40:18.396Z,100.00
2023-05-19T23:42:45.335Z,100.00
2023-05-19T23:45:12.293Z,100.00
2023-05-19T23:47:39.352Z,100.00
2023-05-19T23:50:06.696Z,100.00
2023-05-19T23:52:33.823Z,100.00
2023-05-19T23:55:00.870Z,100.00
2023-05-19T23:57:27.810Z,100.00
2023-05-19T23:59:54.742Z,100.00
